sensor_id;sensor_type;location;lat;lon;timestamp;P1;durP1;ratioP1;P2;durP2;ratioP2
10523;SDS011;5310;48.638;9.060;2024-01-25T00:00:23;1.00;;;1.00;;
10523;SDS011;5310;48.638;9.060;2024-01-25T00:02:49;1.00;;;1.00;;
10523;SDS011;5310;48.638;9.060;2024-01-25T00:05:15;1.00;;;1.00;;
10523;SDS011;5310;48.638;9.060;2024-01-25T00:07:45;0.90;;;0.90;;
10523;SDS011;5310;48.638;9.060;2024-01-25T00:10:11;1.00;;;1.00;;
10523;SDS011;5310;48.638;9.060;2024-01-25T00:12:37;1.00;;;1.00;;
10523;SDS011;5310;48.638;9.060;2024-01-25T00:15:03;1.00;;;1.00;;
10523;SDS011;5310;48.638;9.060;2024-01-25T00:17:29;1.00;;;1.00;;
10523;SDS011;5310;48.638;9.060;2024-01-25T00:19:55;1.00;;;1.00;;
10523;SDS011;5310;48.638;9.060;2024-01-25T00:22:21;1.10;;;1.10;;
10523;SDS011;5310;48.638;9.060;2024-01-25T00:24:47;1.00;;;1.00;;
10523;SDS011;5310;48.638;9.060;2024-01-25T00:27:12;1.00;;;1.00;;
10523;SDS011;5310;48.638;9.060;2024-01-25T00:29:38;1.00;;;1.00;;
10523;SDS011;5310;48.638;9.060;2024-01-25T00:32:04;1.00;;;1.00;;
10523;SDS011;5310;48.638;9.060;2024-01-25T00:34:30;1.00;;;1.00;;
10523;SDS011;5310;48.638;9.060;2024-01-25T00:36:56;1.00;;;1.00;;
10523;SDS011;5310;48.638;9.060;2024-01-25T00:39:22;1.00;;;1.00;;
10523;SDS011;5310;48.638;9.060;2024-01-25T00:41:50;1.00;;;1.00;;
10523;SDS011;5310;48.638;9.060;2024-01-25T00:44:17;1.00;;;1.00;;
10523;SDS011;5310;48.638;9.060;2024-01-25T00:46:43;1.00;;;1.00;;
10523;SDS011;5310;48.638;9.060;2024-01-25T00:49:12;1.00;;;1.00;;
10523;SDS011;5310;48.638;9.060;2024-01-25T00:51:38;1.00;;;1.00;;
10523;SDS011;5310;48.638;9.060;2024-01-25T00:54:06;1.00;;;1.00;;
10523;SDS011;5310;48.638;9.060;2024-01-25T00:56:32;1.10;;;1.10;;
10523;SDS011;5310;48.638;9.060;2024-01-25T00:58:58;1.00;;;1.00;;
10523;SDS011;5310;48.638;9.060;2024-01-25T01:01:24;1.00;;;1.00;;
10523;SDS011;5310;48.638;9.060;2024-01-25T01:03:50;1.00;;;1.00;;
10523;SDS011;5310;48.638;9.060;2024-01-25T01:06:19;1.00;;;1.00;;
10523;SDS011;5310;48.638;9.060;2024-01-25T01:08:45;1.00;;;1.00;;
10523;SDS011;5310;48.638;9.060;2024-01-25T01:11:11;0.97;;;0.97;;
10523;SDS011;5310;48.638;9.060;2024-01-25T01:13:37;1.10;;;1.10;;
10523;SDS011;5310;48.638;9.060;2024-01-25T01:16:03;1.00;;;1.00;;
10523;SDS011;5310;48.638;9.060;2024-01-25T01:18:29;1.03;;;1.03;;
10523;SDS011;5310;48.638;9.060;2024-01-25T01:20:55;1.00;;;1.00;;
10523;SDS011;5310;48.638;9.060;2024-01-25T01:23:21;1.10;;;1.10;;
10523;SDS011;5310;48.638;9.060;2024-01-25T01:25:47;1.10;;;1.10;;
10523;SDS011;5310;48.638;9.060;2024-01-25T01:28:13;1.10;;;1.10;;
10523;SDS011;5310;48.638;9.060;2024-01-25T01:30:39;0.90;;;0.90;;
10523;SDS011;5310;48.638;9.060;2024-01-25T01:33:07;1.00;;;1.00;;
10523;SDS011;5310;48.638;9.060;2024-01-25T01:35:33;1.00;;;1.00;;
10523;SDS011;5310;48.638;9.060;2024-01-25T01:37:59;1.10;;;1.10;;
10523;SDS011;5310;48.638;9.060;2024-01-25T01:40:25;1.00;;;1.00;;
10523;SDS011;5310;48.638;9.060;2024-01-25T01:42:51;1.10;;;1.10;;
10523;SDS011;5310;48.638;9.060;2024-01-25T01:45:17;1.00;;;1.00;;
10523;SDS011;5310;48.638;9.060;2024-01-25T01:47:43;1.00;;;1.00;;
10523;SDS011;5310;48.638;9.060;2024-01-25T01:50:09;1.00;;;1.00;;
10523;SDS011;5310;48.638;9.060;2024-01-25T01:52:36;1.00;;;1.00;;
10523;SDS011;5310;48.638;9.060;2024-01-25T01:55:02;1.00;;;1.00;;
10523;SDS011;5310;48.638;9.060;2024-01-25T01:57:28;1.00;;;1.00;;
10523;SDS011;5310;48.638;9.060;2024-01-25T01:59:55;1.00;;;1.00;;
10523;SDS011;5310;48.638;9.060;2024-01-25T02:02:23;1.20;;;1.10;;
10523;SDS011;5310;48.638;9.060;2024-01-25T02:04:52;1.00;;;1.00;;
10523;SDS011;5310;48.638;9.060;2024-01-25T02:07:18;0.90;;;0.90;;
10523;SDS011;5310;48.638;9.060;2024-01-25T02:09:44;1.00;;;1.00;;
10523;SDS011;5310;48.638;9.060;2024-01-25T02:12:10;1.03;;;1.03;;
10523;SDS011;5310;48.638;9.060;2024-01-25T02:14:36;1.00;;;1.00;;
10523;SDS011;5310;48.638;9.060;2024-01-25T02:17:02;1.10;;;1.10;;
10523;SDS011;5310;48.638;9.060;2024-01-25T02:19:28;1.00;;;1.00;;
10523;SDS011;5310;48.638;9.060;2024-01-25T02:21:54;0.93;;;0.93;;
10523;SDS011;5310;48.638;9.060;2024-01-25T02:24:22;1.00;;;1.00;;
10523;SDS011;5310;48.638;9.060;2024-01-25T02:26:48;1.10;;;1.10;;
10523;SDS011;5310;48.638;9.060;2024-01-25T02:29:14;1.00;;;1.00;;
10523;SDS011;5310;48.638;9.060;2024-01-25T02:31:40;0.93;;;0.93;;
10523;SDS011;5310;48.638;9.060;2024-01-25T02:34:06;0.93;;;0.93;;
10523;SDS011;5310;48.638;9.060;2024-01-25T02:36:32;1.00;;;1.00;;
10523;SDS011;5310;48.638;9.060;2024-01-25T02:38:58;0.90;;;0.90;;
10523;SDS011;5310;48.638;9.060;2024-01-25T02:41:24;1.00;;;1.00;;
10523;SDS011;5310;48.638;9.060;2024-01-25T02:43:50;1.00;;;1.00;;
10523;SDS011;5310;48.638;9.060;2024-01-25T02:46:16;1.00;;;1.00;;
10523;SDS011;5310;48.638;9.060;2024-01-25T02:48:42;1.00;;;1.00;;
10523;SDS011;5310;48.638;9.060;2024-01-25T02:51:07;0.90;;;0.90;;
10523;SDS011;5310;48.638;9.060;2024-01-25T02:53:33;0.90;;;0.90;;
10523;SDS011;5310;48.638;9.060;2024-01-25T02:55:59;1.00;;;1.00;;
10523;SDS011;5310;48.638;9.060;2024-01-25T02:58:25;1.00;;;1.00;;
10523;SDS011;5310;48.638;9.060;2024-01-25T03:00:53;1.00;;;1.00;;
10523;SDS011;5310;48.638;9.060;2024-01-25T03:03:18;1.10;;;1.10;;
10523;SDS011;5310;48.638;9.060;2024-01-25T03:05:44;0.93;;;0.93;;
10523;SDS011;5310;48.638;9.060;2024-01-25T03:08:10;1.00;;;1.00;;
10523;SDS011;5310;48.638;9.060;2024-01-25T03:10:36;1.00;;;1.00;;
10523;SDS011;5310;48.638;9.060;2024-01-25T03:13:02;1.07;;;1.07;;
10523;SDS011;5310;48.638;9.060;2024-01-25T03:15:28;1.00;;;1.00;;
10523;SDS011;5310;48.638;9.060;2024-01-25T03:17:54;1.10;;;1.10;;
10523;SDS011;5310;48.638;9.060;2024-01-25T03:20:20;1.10;;;1.10;;
10523;SDS011;5310;48.638;9.060;2024-01-25T03:22:46;1.10;;;1.10;;
10523;SDS011;5310;48.638;9.060;2024-01-25T03:25:12;1.00;;;1.00;;
10523;SDS011;5310;48.638;9.060;2024-01-25T03:27:38;1.10;;;1.10;;
10523;SDS011;5310;48.638;9.060;2024-01-25T03:30:04;1.10;;;1.10;;
10523;SDS011;5310;48.638;9.060;2024-01-25T03:32:31;1.00;;;1.00;;
10523;SDS011;5310;48.638;9.060;2024-01-25T03:34:57;1.10;;;1.10;;
10523;SDS011;5310;48.638;9.060;2024-01-25T03:37:23;1.00;;;1.00;;
10523;SDS011;5310;48.638;9.060;2024-01-25T03:39:49;1.00;;;1.00;;
10523;SDS011;5310;48.638;9.060;2024-01-25T03:42:15;1.10;;;1.10;;
10523;SDS011;5310;48.638;9.060;2024-01-25T03:44:40;1.00;;;1.00;;
10523;SDS011;5310;48.638;9.060;2024-01-25T03:47:07;1.00;;;1.00;;
10523;SDS011;5310;48.638;9.060;2024-01-25T03:49:33;1.00;;;1.00;;
10523;SDS011;5310;48.638;9.060;2024-01-25T03:51:59;1.00;;;1.00;;
10523;SDS011;5310;48.638;9.060;2024-01-25T03:54:25;1.00;;;1.00;;
10523;SDS011;5310;48.638;9.060;2024-01-25T03:56:51;1.00;;;1.00;;
10523;SDS011;5310;48.638;9.060;2024-01-25T03:59:17;1.10;;;1.10;;
10523;SDS011;5310;48.638;9.060;2024-01-25T04:01:44;0.90;;;0.90;;
10523;SDS011;5310;48.638;9.060;2024-01-25T04:04:10;1.00;;;1.00;;
10523;SDS011;5310;48.638;9.060;2024-01-25T04:06:37;1.00;;;1.00;;
10523;SDS011;5310;48.638;9.060;2024-01-25T04:09:03;0.90;;;0.90;;
10523;SDS011;5310;48.638;9.060;2024-01-25T04:11:30;0.93;;;0.93;;
10523;SDS011;5310;48.638;9.060;2024-01-25T04:13:56;1.00;;;1.00;;
10523;SDS011;5310;48.638;9.060;2024-01-25T04:16:22;0.90;;;0.90;;
10523;SDS011;5310;48.638;9.060;2024-01-25T04:18:48;1.00;;;1.00;;
10523;SDS011;5310;48.638;9.060;2024-01-25T04:21:14;1.00;;;1.00;;
10523;SDS011;5310;48.638;9.060;2024-01-25T04:23:39;1.00;;;1.00;;
10523;SDS011;5310;48.638;9.060;2024-01-25T04:26:05;1.00;;;1.00;;
10523;SDS011;5310;48.638;9.060;2024-01-25T04:28:31;1.00;;;1.00;;
10523;SDS011;5310;48.638;9.060;2024-01-25T04:30:57;1.00;;;1.00;;
10523;SDS011;5310;48.638;9.060;2024-01-25T04:33:23;1.00;;;1.00;;
10523;SDS011;5310;48.638;9.060;2024-01-25T04:35:49;1.00;;;1.00;;
10523;SDS011;5310;48.638;9.060;2024-01-25T04:38:15;1.00;;;1.00;;
10523;SDS011;5310;48.638;9.060;2024-01-25T04:40:41;0.90;;;0.90;;
10523;SDS011;5310;48.638;9.060;2024-01-25T04:43:07;1.00;;;1.00;;
10523;SDS011;5310;48.638;9.060;2024-01-25T04:45:33;1.00;;;1.00;;
10523;SDS011;5310;48.638;9.060;2024-01-25T04:47:59;0.90;;;0.90;;
10523;SDS011;5310;48.638;9.060;2024-01-25T04:50:25;1.00;;;1.00;;
10523;SDS011;5310;48.638;9.060;2024-01-25T04:52:51;1.00;;;1.00;;
10523;SDS011;5310;48.638;9.060;2024-01-25T04:55:17;1.00;;;1.00;;
10523;SDS011;5310;48.638;9.060;2024-01-25T04:57:44;1.00;;;1.00;;
10523;SDS011;5310;48.638;9.060;2024-01-25T05:00:10;1.00;;;1.00;;
10523;SDS011;5310;48.638;9.060;2024-01-25T05:02:36;1.00;;;1.00;;
10523;SDS011;5310;48.638;9.060;2024-01-25T05:05:02;1.00;;;1.00;;
10523;SDS011;5310;48.638;9.060;2024-01-25T05:07:28;1.00;;;1.00;;
10523;SDS011;5310;48.638;9.060;2024-01-25T05:09:54;0.90;;;0.90;;
10523;SDS011;5310;48.638;9.060;2024-01-25T05:12:20;1.10;;;1.10;;
10523;SDS011;5310;48.638;9.060;2024-01-25T05:14:46;1.00;;;1.00;;
10523;SDS011;5310;48.638;9.060;2024-01-25T05:17:12;1.00;;;1.00;;
10523;SDS011;5310;48.638;9.060;2024-01-25T05:19:38;1.00;;;1.00;;
10523;SDS011;5310;48.638;9.060;2024-01-25T05:22:04;0.93;;;0.93;;
10523;SDS011;5310;48.638;9.060;2024-01-25T05:24:32;0.90;;;0.90;;
10523;SDS011;5310;48.638;9.060;2024-01-25T05:26:58;0.90;;;0.90;;
10523;SDS011;5310;48.638;9.060;2024-01-25T05:29:24;1.00;;;1.00;;
10523;SDS011;5310;48.638;9.060;2024-01-25T05:31:50;1.00;;;1.00;;
10523;SDS011;5310;48.638;9.060;2024-01-25T05:34:17;1.00;;;1.00;;
10523;SDS011;5310;48.638;9.060;2024-01-25T05:36:43;1.10;;;1.10;;
10523;SDS011;5310;48.638;9.060;2024-01-25T05:39:09;1.00;;;1.00;;
10523;SDS011;5310;48.638;9.060;2024-01-25T05:41:34;1.03;;;1.03;;
10523;SDS011;5310;48.638;9.060;2024-01-25T05:44:01;1.00;;;1.00;;
10523;SDS011;5310;48.638;9.060;2024-01-25T05:46:26;1.00;;;1.00;;
10523;SDS011;5310;48.638;9.060;2024-01-25T05:48:52;1.00;;;1.00;;
10523;SDS011;5310;48.638;9.060;2024-01-25T05:51:18;1.00;;;1.00;;
10523;SDS011;5310;48.638;9.060;2024-01-25T05:53:44;1.10;;;1.10;;
10523;SDS011;5310;48.638;9.060;2024-01-25T05:56:10;1.10;;;1.10;;
10523;SDS011;5310;48.638;9.060;2024-01-25T05:58:36;1.00;;;1.00;;
10523;SDS011;5310;48.638;9.060;2024-01-25T06:01:02;1.00;;;1.00;;
10523;SDS011;5310;48.638;9.060;2024-01-25T06:03:28;1.00;;;1.00;;
10523;SDS011;5310;48.638;9.060;2024-01-25T06:05:54;1.10;;;1.10;;
10523;SDS011;5310;48.638;9.060;2024-01-25T06:08:20;1.00;;;1.00;;
10523;SDS011;5310;48.638;9.060;2024-01-25T06:10:46;1.10;;;1.10;;
10523;SDS011;5310;48.638;9.060;2024-01-25T06:13:12;1.00;;;1.00;;
10523;SDS011;5310;48.638;9.060;2024-01-25T06:15:38;1.00;;;1.00;;
10523;SDS011;5310;48.638;9.060;2024-01-25T06:18:04;1.00;;;1.00;;
10523;SDS011;5310;48.638;9.060;2024-01-25T06:20:30;1.00;;;1.00;;
10523;SDS011;5310;48.638;9.060;2024-01-25T06:25:22;1.00;;;1.00;;
10523;SDS011;5310;48.638;9.060;2024-01-25T06:27:48;1.00;;;1.00;;
10523;SDS011;5310;48.638;9.060;2024-01-25T06:30:14;1.00;;;1.00;;
10523;SDS011;5310;48.638;9.060;2024-01-25T06:32:40;1.10;;;1.10;;
10523;SDS011;5310;48.638;9.060;2024-01-25T06:35:06;1.00;;;1.00;;
10523;SDS011;5310;48.638;9.060;2024-01-25T06:37:32;1.00;;;1.00;;
10523;SDS011;5310;48.638;9.060;2024-01-25T06:39:58;1.00;;;1.00;;
10523;SDS011;5310;48.638;9.060;2024-01-25T06:42:24;1.07;;;1.07;;
10523;SDS011;5310;48.638;9.060;2024-01-25T06:44:50;1.00;;;1.00;;
10523;SDS011;5310;48.638;9.060;2024-01-25T06:47:16;1.10;;;1.10;;
10523;SDS011;5310;48.638;9.060;2024-01-25T06:49:42;1.10;;;1.10;;
10523;SDS011;5310;48.638;9.060;2024-01-25T06:52:08;1.10;;;1.10;;
10523;SDS011;5310;48.638;9.060;2024-01-25T06:54:34;1.00;;;1.00;;
10523;SDS011;5310;48.638;9.060;2024-01-25T06:57:00;1.00;;;1.00;;
10523;SDS011;5310;48.638;9.060;2024-01-25T06:59:26;1.00;;;1.00;;
10523;SDS011;5310;48.638;9.060;2024-01-25T07:01:52;1.00;;;1.00;;
10523;SDS011;5310;48.638;9.060;2024-01-25T07:04:19;1.00;;;1.00;;
10523;SDS011;5310;48.638;9.060;2024-01-25T07:06:44;1.10;;;1.10;;
10523;SDS011;5310;48.638;9.060;2024-01-25T07:09:10;1.00;;;1.00;;
10523;SDS011;5310;48.638;9.060;2024-01-25T07:11:36;1.10;;;1.10;;
10523;SDS011;5310;48.638;9.060;2024-01-25T07:14:02;1.00;;;1.00;;
10523;SDS011;5310;48.638;9.060;2024-01-25T07:16:28;1.00;;;1.00;;
10523;SDS011;5310;48.638;9.060;2024-01-25T07:18:55;1.00;;;1.00;;
10523;SDS011;5310;48.638;9.060;2024-01-25T07:21:22;1.07;;;1.07;;
10523;SDS011;5310;48.638;9.060;2024-01-25T07:23:48;1.00;;;1.00;;
10523;SDS011;5310;48.638;9.060;2024-01-25T07:26:17;1.00;;;1.00;;
10523;SDS011;5310;48.638;9.060;2024-01-25T07:28:43;1.00;;;1.00;;
10523;SDS011;5310;48.638;9.060;2024-01-25T07:31:09;1.00;;;1.00;;
10523;SDS011;5310;48.638;9.060;2024-01-25T07:33:36;1.00;;;1.00;;
10523;SDS011;5310;48.638;9.060;2024-01-25T07:36:02;1.00;;;1.00;;
10523;SDS011;5310;48.638;9.060;2024-01-25T07:38:28;1.00;;;1.00;;
10523;SDS011;5310;48.638;9.060;2024-01-25T07:40:54;1.10;;;1.10;;
10523;SDS011;5310;48.638;9.060;2024-01-25T07:43:20;1.00;;;1.00;;
10523;SDS011;5310;48.638;9.060;2024-01-25T07:45:46;0.97;;;0.97;;
10523;SDS011;5310;48.638;9.060;2024-01-25T07:48:12;1.00;;;1.00;;
10523;SDS011;5310;48.638;9.060;2024-01-25T07:50:38;1.00;;;1.00;;
10523;SDS011;5310;48.638;9.060;2024-01-25T07:53:04;1.00;;;1.00;;
10523;SDS011;5310;48.638;9.060;2024-01-25T07:55:30;1.00;;;1.00;;
10523;SDS011;5310;48.638;9.060;2024-01-25T07:57:56;1.00;;;1.00;;
10523;SDS011;5310;48.638;9.060;2024-01-25T08:00:22;0.90;;;0.90;;
10523;SDS011;5310;48.638;9.060;2024-01-25T08:02:48;1.10;;;1.10;;
10523;SDS011;5310;48.638;9.060;2024-01-25T08:05:14;1.10;;;1.10;;
10523;SDS011;5310;48.638;9.060;2024-01-25T08:07:40;1.00;;;1.00;;
10523;SDS011;5310;48.638;9.060;2024-01-25T08:10:06;1.00;;;1.00;;
10523;SDS011;5310;48.638;9.060;2024-01-25T08:12:32;1.00;;;1.00;;
10523;SDS011;5310;48.638;9.060;2024-01-25T08:14:58;1.00;;;1.00;;
10523;SDS011;5310;48.638;9.060;2024-01-25T08:17:24;1.10;;;1.10;;
10523;SDS011;5310;48.638;9.060;2024-01-25T08:19:50;1.00;;;1.00;;
10523;SDS011;5310;48.638;9.060;2024-01-25T08:22:16;1.10;;;1.10;;
10523;SDS011;5310;48.638;9.060;2024-01-25T08:24:42;0.90;;;0.90;;
10523;SDS011;5310;48.638;9.060;2024-01-25T08:27:08;1.00;;;1.00;;
10523;SDS011;5310;48.638;9.060;2024-01-25T08:29:34;1.00;;;1.00;;
10523;SDS011;5310;48.638;9.060;2024-01-25T08:32:02;1.00;;;1.00;;
10523;SDS011;5310;48.638;9.060;2024-01-25T08:34:28;1.00;;;1.00;;
10523;SDS011;5310;48.638;9.060;2024-01-25T08:36:54;1.00;;;1.00;;
10523;SDS011;5310;48.638;9.060;2024-01-25T08:39:20;1.00;;;1.00;;
10523;SDS011;5310;48.638;9.060;2024-01-25T08:41:46;1.00;;;1.00;;
10523;SDS011;5310;48.638;9.060;2024-01-25T08:44:14;1.00;;;1.00;;
10523;SDS011;5310;48.638;9.060;2024-01-25T08:46:40;1.00;;;1.00;;
10523;SDS011;5310;48.638;9.060;2024-01-25T08:49:07;1.00;;;1.00;;
10523;SDS011;5310;48.638;9.060;2024-01-25T08:51:35;1.00;;;1.00;;
10523;SDS011;5310;48.638;9.060;2024-01-25T08:54:01;1.00;;;1.00;;
10523;SDS011;5310;48.638;9.060;2024-01-25T08:56:28;0.90;;;0.90;;
10523;SDS011;5310;48.638;9.060;2024-01-25T08:58:54;1.00;;;1.00;;
10523;SDS011;5310;48.638;9.060;2024-01-25T09:01:20;1.00;;;1.00;;
10523;SDS011;5310;48.638;9.060;2024-01-25T09:03:46;1.00;;;1.00;;
10523;SDS011;5310;48.638;9.060;2024-01-25T09:06:12;1.00;;;1.00;;
10523;SDS011;5310;48.638;9.060;2024-01-25T09:08:40;1.00;;;1.00;;
10523;SDS011;5310;48.638;9.060;2024-01-25T09:11:06;1.00;;;1.00;;
10523;SDS011;5310;48.638;9.060;2024-01-25T09:13:32;1.10;;;1.10;;
10523;SDS011;5310;48.638;9.060;2024-01-25T09:15:57;1.00;;;1.00;;
10523;SDS011;5310;48.638;9.060;2024-01-25T09:18:23;1.00;;;1.00;;
10523;SDS011;5310;48.638;9.060;2024-01-25T09:20:50;1.00;;;1.00;;
10523;SDS011;5310;48.638;9.060;2024-01-25T09:23:16;1.00;;;1.00;;
10523;SDS011;5310;48.638;9.060;2024-01-25T09:25:42;1.00;;;1.00;;
10523;SDS011;5310;48.638;9.060;2024-01-25T09:28:09;1.00;;;1.00;;
10523;SDS011;5310;48.638;9.060;2024-01-25T09:30:37;1.00;;;1.00;;
10523;SDS011;5310;48.638;9.060;2024-01-25T09:33:04;1.00;;;1.00;;
10523;SDS011;5310;48.638;9.060;2024-01-25T09:35:30;1.00;;;1.00;;
10523;SDS011;5310;48.638;9.060;2024-01-25T09:37:56;1.00;;;1.00;;
10523;SDS011;5310;48.638;9.060;2024-01-25T09:40:22;1.00;;;1.00;;
10523;SDS011;5310;48.638;9.060;2024-01-25T09:42:48;1.00;;;1.00;;
10523;SDS011;5310;48.638;9.060;2024-01-25T09:45:17;0.93;;;0.93;;
10523;SDS011;5310;48.638;9.060;2024-01-25T09:47:43;0.90;;;0.90;;
10523;SDS011;5310;48.638;9.060;2024-01-25T09:50:10;1.00;;;1.00;;
10523;SDS011;5310;48.638;9.060;2024-01-25T09:52:36;0.90;;;0.90;;
10523;SDS011;5310;48.638;9.060;2024-01-25T09:55:04;1.00;;;1.00;;
10523;SDS011;5310;48.638;9.060;2024-01-25T09:57:31;1.00;;;1.00;;
10523;SDS011;5310;48.638;9.060;2024-01-25T09:59:58;0.90;;;0.90;;
10523;SDS011;5310;48.638;9.060;2024-01-25T10:02:24;0.93;;;0.93;;
10523;SDS011;5310;48.638;9.060;2024-01-25T10:04:50;1.00;;;1.00;;
10523;SDS011;5310;48.638;9.060;2024-01-25T10:10:04;1.00;;;1.00;;
10523;SDS011;5310;48.638;9.060;2024-01-25T10:12:30;1.00;;;1.00;;
10523;SDS011;5310;48.638;9.060;2024-01-25T10:14:56;1.00;;;1.00;;
10523;SDS011;5310;48.638;9.060;2024-01-25T10:17:22;1.00;;;1.00;;
10523;SDS011;5310;48.638;9.060;2024-01-25T10:19:49;1.00;;;1.00;;
10523;SDS011;5310;48.638;9.060;2024-01-25T10:22:15;1.00;;;1.00;;
10523;SDS011;5310;48.638;9.060;2024-01-25T10:24:41;0.90;;;0.90;;
10523;SDS011;5310;48.638;9.060;2024-01-25T10:27:07;0.90;;;0.90;;
10523;SDS011;5310;48.638;9.060;2024-01-25T10:29:36;0.90;;;0.90;;
10523;SDS011;5310;48.638;9.060;2024-01-25T10:32:03;0.93;;;0.93;;
10523;SDS011;5310;48.638;9.060;2024-01-25T10:34:29;0.90;;;0.90;;
10523;SDS011;5310;48.638;9.060;2024-01-25T10:36:56;1.00;;;1.00;;
10523;SDS011;5310;48.638;9.060;2024-01-25T10:39:22;1.00;;;1.00;;
10523;SDS011;5310;48.638;9.060;2024-01-25T10:41:49;0.90;;;0.90;;
10523;SDS011;5310;48.638;9.060;2024-01-25T10:44:16;0.93;;;0.93;;
10523;SDS011;5310;48.638;9.060;2024-01-25T10:46:48;0.90;;;0.90;;
10523;SDS011;5310;48.638;9.060;2024-01-25T10:49:14;1.00;;;1.00;;
10523;SDS011;5310;48.638;9.060;2024-01-25T10:51:41;0.90;;;0.90;;
10523;SDS011;5310;48.638;9.060;2024-01-25T10:54:07;0.90;;;0.90;;
10523;SDS011;5310;48.638;9.060;2024-01-25T10:56:37;0.93;;;0.93;;
10523;SDS011;5310;48.638;9.060;2024-01-25T10:59:03;0.90;;;0.90;;
10523;SDS011;5310;48.638;9.060;2024-01-25T11:01:31;0.90;;;0.90;;
10523;SDS011;5310;48.638;9.060;2024-01-25T11:03:58;0.90;;;0.90;;
10523;SDS011;5310;48.638;9.060;2024-01-25T11:06:26;0.90;;;0.90;;
10523;SDS011;5310;48.638;9.060;2024-01-25T11:09:03;0.90;;;0.90;;
10523;SDS011;5310;48.638;9.060;2024-01-25T11:11:32;0.90;;;0.90;;
10523;SDS011;5310;48.638;9.060;2024-01-25T11:13:58;0.90;;;0.90;;
10523;SDS011;5310;48.638;9.060;2024-01-25T11:16:28;0.93;;;0.93;;
10523;SDS011;5310;48.638;9.060;2024-01-25T11:18:55;0.80;;;0.80;;
10523;SDS011;5310;48.638;9.060;2024-01-25T11:24:15;0.90;;;0.90;;
10523;SDS011;5310;48.638;9.060;2024-01-25T11:26:42;1.00;;;1.00;;
10523;SDS011;5310;48.638;9.060;2024-01-25T11:29:09;0.90;;;0.90;;
10523;SDS011;5310;48.638;9.060;2024-01-25T11:31:35;0.90;;;0.90;;
10523;SDS011;5310;48.638;9.060;2024-01-25T11:34:01;0.90;;;0.90;;
10523;SDS011;5310;48.638;9.060;2024-01-25T11:36:27;0.80;;;0.80;;
10523;SDS011;5310;48.638;9.060;2024-01-25T11:38:53;0.87;;;0.87;;
10523;SDS011;5310;48.638;9.060;2024-01-25T11:41:20;0.80;;;0.80;;
10523;SDS011;5310;48.638;9.060;2024-01-25T11:43:49;0.90;;;0.90;;
10523;SDS011;5310;48.638;9.060;2024-01-25T11:46:16;0.90;;;0.90;;
10523;SDS011;5310;48.638;9.060;2024-01-25T11:48:42;0.80;;;0.80;;
10523;SDS011;5310;48.638;9.060;2024-01-25T11:51:11;0.80;;;0.80;;
10523;SDS011;5310;48.638;9.060;2024-01-25T11:53:37;0.80;;;0.80;;
10523;SDS011;5310;48.638;9.060;2024-01-25T11:56:04;0.90;;;0.90;;
10523;SDS011;5310;48.638;9.060;2024-01-25T11:58:32;0.90;;;0.90;;
10523;SDS011;5310;48.638;9.060;2024-01-25T12:00:59;0.80;;;0.80;;
10523;SDS011;5310;48.638;9.060;2024-01-25T12:03:25;0.80;;;0.80;;
10523;SDS011;5310;48.638;9.060;2024-01-25T12:05:51;0.90;;;0.90;;
10523;SDS011;5310;48.638;9.060;2024-01-25T12:08:17;0.90;;;0.90;;
10523;SDS011;5310;48.638;9.060;2024-01-25T12:10:43;0.80;;;0.80;;
10523;SDS011;5310;48.638;9.060;2024-01-25T12:13:09;0.80;;;0.80;;
10523;SDS011;5310;48.638;9.060;2024-01-25T12:15:35;0.90;;;0.90;;
10523;SDS011;5310;48.638;9.060;2024-01-25T12:18:01;0.70;;;0.70;;
10523;SDS011;5310;48.638;9.060;2024-01-25T12:20:27;0.83;;;0.83;;
10523;SDS011;5310;48.638;9.060;2024-01-25T12:22:53;0.70;;;0.70;;
10523;SDS011;5310;48.638;9.060;2024-01-25T12:25:19;0.77;;;0.77;;
10523;SDS011;5310;48.638;9.060;2024-01-25T12:27:47;0.90;;;0.90;;
10523;SDS011;5310;48.638;9.060;2024-01-25T12:30:15;0.80;;;0.80;;
10523;SDS011;5310;48.638;9.060;2024-01-25T12:32:41;0.80;;;0.80;;
10523;SDS011;5310;48.638;9.060;2024-01-25T12:35:07;0.80;;;0.80;;
10523;SDS011;5310;48.638;9.060;2024-01-25T12:37:33;0.70;;;0.70;;
10523;SDS011;5310;48.638;9.060;2024-01-25T12:39:59;0.70;;;0.70;;
10523;SDS011;5310;48.638;9.060;2024-01-25T12:42:26;0.80;;;0.80;;
10523;SDS011;5310;48.638;9.060;2024-01-25T12:44:52;0.90;;;0.90;;
10523;SDS011;5310;48.638;9.060;2024-01-25T12:47:19;0.77;;;0.77;;
10523;SDS011;5310;48.638;9.060;2024-01-25T12:49:45;0.80;;;0.80;;
10523;SDS011;5310;48.638;9.060;2024-01-25T12:52:11;0.73;;;0.73;;
10523;SDS011;5310;48.638;9.060;2024-01-25T12:54:38;0.80;;;0.80;;
10523;SDS011;5310;48.638;9.060;2024-01-25T12:57:04;0.73;;;0.73;;
10523;SDS011;5310;48.638;9.060;2024-01-25T12:59:30;0.70;;;0.70;;
10523;SDS011;5310;48.638;9.060;2024-01-25T13:01:57;0.90;;;0.90;;
10523;SDS011;5310;48.638;9.060;2024-01-25T13:04:23;0.80;;;0.80;;
10523;SDS011;5310;48.638;9.060;2024-01-25T13:06:49;0.80;;;0.80;;
10523;SDS011;5310;48.638;9.060;2024-01-25T13:09:17;0.90;;;0.90;;
10523;SDS011;5310;48.638;9.060;2024-01-25T13:11:43;0.80;;;0.80;;
10523;SDS011;5310;48.638;9.060;2024-01-25T13:14:09;0.80;;;0.80;;
10523;SDS011;5310;48.638;9.060;2024-01-25T13:16:34;0.80;;;0.80;;
10523;SDS011;5310;48.638;9.060;2024-01-25T13:19:00;0.90;;;0.90;;
10523;SDS011;5310;48.638;9.060;2024-01-25T13:21:26;0.80;;;0.80;;
10523;SDS011;5310;48.638;9.060;2024-01-25T13:23:52;0.80;;;0.80;;
10523;SDS011;5310;48.638;9.060;2024-01-25T13:26:18;0.80;;;0.80;;
10523;SDS011;5310;48.638;9.060;2024-01-25T13:28:43;0.90;;;0.90;;
10523;SDS011;5310;48.638;9.060;2024-01-25T13:31:10;0.90;;;0.90;;
10523;SDS011;5310;48.638;9.060;2024-01-25T13:33:35;0.90;;;0.90;;
10523;SDS011;5310;48.638;9.060;2024-01-25T13:36:01;0.80;;;0.80;;
10523;SDS011;5310;48.638;9.060;2024-01-25T13:38:30;0.90;;;0.90;;
10523;SDS011;5310;48.638;9.060;2024-01-25T13:40:56;0.90;;;0.90;;
10523;SDS011;5310;48.638;9.060;2024-01-25T13:43:22;0.80;;;0.80;;
10523;SDS011;5310;48.638;9.060;2024-01-25T13:45:48;0.70;;;0.70;;
10523;SDS011;5310;48.638;9.060;2024-01-25T13:48:14;0.80;;;0.80;;
10523;SDS011;5310;48.638;9.060;2024-01-25T13:50:40;0.80;;;0.80;;
10523;SDS011;5310;48.638;9.060;2024-01-25T13:53:09;0.80;;;0.80;;
10523;SDS011;5310;48.638;9.060;2024-01-25T13:55:38;0.80;;;0.80;;
10523;SDS011;5310;48.638;9.060;2024-01-25T13:58:04;0.90;;;0.90;;
10523;SDS011;5310;48.638;9.060;2024-01-25T14:00:30;0.90;;;0.90;;
10523;SDS011;5310;48.638;9.060;2024-01-25T14:02:56;0.80;;;0.80;;
10523;SDS011;5310;48.638;9.060;2024-01-25T14:05:22;0.80;;;0.80;;
10523;SDS011;5310;48.638;9.060;2024-01-25T14:07:48;0.80;;;0.80;;
10523;SDS011;5310;48.638;9.060;2024-01-25T14:10:14;0.80;;;0.80;;
10523;SDS011;5310;48.638;9.060;2024-01-25T14:12:40;0.90;;;0.90;;
10523;SDS011;5310;48.638;9.060;2024-01-25T14:15:06;1.00;;;1.00;;
10523;SDS011;5310;48.638;9.060;2024-01-25T14:17:32;0.90;;;0.90;;
10523;SDS011;5310;48.638;9.060;2024-01-25T14:19:59;0.90;;;0.90;;
10523;SDS011;5310;48.638;9.060;2024-01-25T14:22:25;1.00;;;1.00;;
10523;SDS011;5310;48.638;9.060;2024-01-25T14:24:53;0.90;;;0.90;;
10523;SDS011;5310;48.638;9.060;2024-01-25T14:27:19;1.00;;;1.00;;
10523;SDS011;5310;48.638;9.060;2024-01-25T14:29:45;0.90;;;0.90;;
10523;SDS011;5310;48.638;9.060;2024-01-25T14:32:10;1.03;;;1.00;;
10523;SDS011;5310;48.638;9.060;2024-01-25T14:34:36;0.97;;;0.97;;
10523;SDS011;5310;48.638;9.060;2024-01-25T14:37:02;0.80;;;0.80;;
10523;SDS011;5310;48.638;9.060;2024-01-25T14:39:28;0.90;;;0.90;;
10523;SDS011;5310;48.638;9.060;2024-01-25T14:41:54;1.00;;;1.00;;
10523;SDS011;5310;48.638;9.060;2024-01-25T14:44:20;1.00;;;1.00;;
10523;SDS011;5310;48.638;9.060;2024-01-25T14:46:46;0.80;;;0.80;;
10523;SDS011;5310;48.638;9.060;2024-01-25T14:49:12;0.80;;;0.80;;
10523;SDS011;5310;48.638;9.060;2024-01-25T14:51:38;0.90;;;0.90;;
10523;SDS011;5310;48.638;9.060;2024-01-25T14:54:04;0.80;;;0.80;;
10523;SDS011;5310;48.638;9.060;2024-01-25T14:56:30;0.80;;;0.80;;
10523;SDS011;5310;48.638;9.060;2024-01-25T14:58:56;0.90;;;0.90;;
10523;SDS011;5310;48.638;9.060;2024-01-25T15:01:21;0.83;;;0.83;;